Coy, Alabama
Current Conditions -  °F | °C
As of 1:53 PM on Thursday 30 Oct 2014 (Local Time) from KGZH Reporting Station
Clear Clear  
Wind Chill: 71°   Ceiling: Unl
Heat Index: 71°   Visibility: 10mi
Dew Point: 39°   Wind: 12mph
Humidity: 31%   Direction: 50°NE
Pressure: 30.03"   Gusts: NA
Location:  31.89°N, 87.46°W
Report Text: KGZH 301853Z AUTO 05010KT 10SM CLR 22/04 A3003 RMK AO2 SLP166 T02170039
Loading
Personal Weather Stations






























Interactive Weather Map
Tropical Storm Tracking
New forecast layout! Learn more

10-Day Weather Forecast

Advertisements
Track Severe Weather on mobile